Time,TemperatureF,DewpointF,PressureIn,WindDirection,WindDirectionDegrees,WindSpeedMPH,WindSpeedGustMPH,Humidity,HourlyPrecipIn,Conditions,Clouds,dailyrainin,SoftwareType,DateUTC
2013-01-31 00:00:00,50.8,27.4,30.20,NNW,329,0.0,0.0,40,0.00,,,0.00,WeatherCatV1.10B1784,2013-01-31 08:00:00,
2013-01-31 00:05:00,51.0,27.5,30.20,NNW,329,0.0,0.0,40,0.00,,,0.00,WeatherCatV1.10B1784,2013-01-31 08:05:00,
2013-01-31 00:10:00,51.1,28.2,30.20,NNW,329,0.0,0.0,41,0.00,,,0.00,WeatherCatV1.10B1784,2013-01-31 08:10:00,
2013-01-31 00:15:00,51.2,27.7,30.20,NNW,329,0.0,0.0,40,0.00,,,0.00,WeatherCatV1.10B1784,2013-01-31 08:15:00,
2013-01-31 00:20:00,51.3,27.8,30.20,NNW,329,0.0,0.0,40,0.00,,,0.00,WeatherCatV1.10B1784,2013-01-31 08:20:00,
2013-01-31 00:25:00,51.3,28.4,30.20,NNW,329,0.0,0.0,41,0.00,,,0.00,WeatherCatV1.10B1784,2013-01-31 08:25:00,
2013-01-31 00:30:00,51.3,28.4,30.20,NNW,330,0.0,1.0,41,0.00,,,0.00,WeatherCatV1.10B1784,2013-01-31 08:30:00,
2013-01-31 00:35:00,51.1,28.2,30.20,NNW,331,0.0,0.0,41,0.00,,,0.00,WeatherCatV1.10B1784,2013-01-31 08:35:00,
2013-01-31 00:40:00,50.9,27.4,30.20,NNW,331,0.0,0.0,40,0.00,,,0.00,WeatherCatV1.10B1784,2013-01-31 08:40:00,
2013-01-31 00:45:00,50.8,28.0,30.20,NNW,331,0.0,0.0,41,0.00,,,0.00,WeatherCatV1.10B1784,2013-01-31 08:45:00,
2013-01-31 00:50:00,50.9,27.4,30.20,NNW,331,0.0,0.0,40,0.00,,,0.00,WeatherCatV1.10B1784,2013-01-31 08:50:00,
2013-01-31 00:55:00,51.0,28.1,30.20,NNW,331,0.0,0.0,41,0.00,,,0.00,WeatherCatV1.10B1784,2013-01-31 08:55:00,
2013-01-31 01:00:00,50.9,28.0,30.20,NNW,331,0.0,0.0,41,0.00,,,0.00,WeatherCatV1.10B1784,2013-01-31 09:00:00,
2013-01-31 01:05:00,50.9,28.6,30.20,NW,326,0.0,1.0,42,0.00,,,0.00,WeatherCatV1.10B1784,2013-01-31 09:05:00,
2013-01-31 01:10:00,50.8,29.1,30.20,NNW,331,0.0,1.0,43,0.00,,,0.00,WeatherCatV1.10B1784,2013-01-31 09:10:00,
2013-01-31 01:15:00,50.8,29.7,30.20,NNW,333,2.0,2.0,44,0.00,,,0.00,WeatherCatV1.10B1784,2013-01-31 09:15:00,
2013-01-31 01:16:00,50.7,29.6,30.20,NNW,334,1.0,2.0,44,0.00,,,0.00,WeatherCatV1.10B1784,2013-01-31 09:16:00,
2013-01-31 01:21:00,51.0,31.0,30.20,NNW,336,0.0,2.0,46,0.00,,,0.00,WeatherCatV1.10B1784,2013-01-31 09:21:00,
2013-01-31 01:26:00,51.2,31.1,30.20,NNW,335,3.0,3.0,46,0.00,,,0.00,WeatherCatV1.10B1784,2013-01-31 09:26:00,
2013-01-31 01:31:00,51.4,30.8,30.19,NNW,348,1.0,5.0,45,0.00,,,0.00,WeatherCatV1.10B1784,2013-01-31 09:31:00,
2013-01-31 01:36:00,51.7,31.1,30.19,NNW,334,3.0,4.0,45,0.00,,,0.00,WeatherCatV1.10B1784,2013-01-31 09:36:00,
2013-01-31 01:41:00,52.0,30.8,30.19,NNW,341,5.0,6.0,44,0.00,,,0.00,WeatherCatV1.10B1784,2013-01-31 09:41:00,
2013-01-31 01:46:00,52.3,31.0,30.19,NW,316,5.0,6.0,44,0.00,,,0.00,WeatherCatV1.10B1784,2013-01-31 09:46:00,
2013-01-31 01:51:00,52.4,31.1,30.19,NNW,333,4.0,7.0,44,0.00,,,0.00,WeatherCatV1.10B1784,2013-01-31 09:51:00,
2013-01-31 01:56:00,52.4,31.7,30.19,NNW,338,5.0,5.0,45,0.00,,,0.00,WeatherCatV1.10B1784,2013-01-31 09:56:00,
2013-01-31 02:01:00,52.4,31.7,30.19,NW,306,7.0,7.0,45,0.00,,,0.00,WeatherCatV1.10B1784,2013-01-31 10:01:00,
2013-01-31 02:06:00,52.5,32.3,30.19,NNW,327,3.0,7.0,46,0.00,,,0.00,WeatherCatV1.10B1784,2013-01-31 10:06:00,
2013-01-31 02:11:00,52.5,32.3,30.19,NNW,333,3.0,3.0,46,0.00,,,0.00,WeatherCatV1.10B1784,2013-01-31 10:11:00,
2013-01-31 02:16:00,52.4,32.2,30.19,NNW,330,2.0,5.0,46,0.00,,,0.00,WeatherCatV1.10B1784,2013-01-31 10:16:00,
2013-01-31 02:21:00,52.7,31.4,30.19,NNW,341,2.0,3.0,44,0.00,,,0.00,WeatherCatV1.10B1784,2013-01-31 10:21:00,
2013-01-31 02:26:00,52.8,31.5,30.19,NNW,333,5.0,5.0,44,0.00,,,0.00,WeatherCatV1.10B1784,2013-01-31 10:26:00,
2013-01-31 02:31:00,52.9,32.1,30.19,NNW,339,2.0,3.0,45,0.00,,,0.00,WeatherCatV1.10B1784,2013-01-31 10:31:00,
2013-01-31 02:36:00,52.6,32.4,30.19,NNW,331,3.0,3.0,46,0.00,,,0.00,WeatherCatV1.10B1784,2013-01-31 10:36:00,
2013-01-31 02:41:00,52.1,32.5,30.19,NNW,331,0.0,5.0,47,0.00,,,0.00,WeatherCatV1.10B1784,2013-01-31 10:41:00,
2013-01-31 02:46:00,51.9,32.8,30.19,NNW,342,0.0,2.0,48,0.00,,,0.00,WeatherCatV1.10B1784,2013-01-31 10:46:00,
2013-01-31 02:51:00,51.4,32.9,30.19,NW,326,4.0,5.0,49,0.00,,,0.00,WeatherCatV1.10B1784,2013-01-31 10:51:00,
2013-01-31 02:56:00,51.0,33.0,30.19,NW,323,3.0,3.0,50,0.00,,,0.00,WeatherCatV1.10B1784,2013-01-31 10:56:00,
2013-01-31 03:01:00,50.9,33.4,30.19,NNW,329,2.0,2.0,51,0.00,,,0.00,WeatherCatV1.10B1784,2013-01-31 11:01:00,
2013-01-31 03:06:00,50.8,33.3,30.19,NNW,335,1.0,2.0,51,0.00,,,0.00,WeatherCatV1.10B1784,2013-01-31 11:06:00,
2013-01-31 03:11:00,50.6,33.1,30.19,NNW,331,0.0,1.0,51,0.00,,,0.00,WeatherCatV1.10B1784,2013-01-31 11:11:00,
2013-01-31 03:16:00,50.5,33.1,30.18,NNW,331,0.0,0.0,51,0.00,,,0.00,WeatherCatV1.10B1784,2013-01-31 11:16:00,
2013-01-31 03:21:00,50.3,33.4,30.18,NNW,335,2.0,3.0,52,0.00,,,0.00,WeatherCatV1.10B1784,2013-01-31 11:21:00,
2013-01-31 03:26:00,50.0,33.1,30.18,NNW,338,2.0,3.0,52,0.00,,,0.00,WeatherCatV1.10B1784,2013-01-31 11:26:00,
2013-01-31 03:31:00,50.0,32.6,30.17,NNW,337,0.0,1.0,51,0.00,,,0.00,WeatherCatV1.10B1784,2013-01-31 11:31:00,
2013-01-31 03:36:00,50.0,32.6,30.17,NNW,337,1.0,2.0,51,0.00,,,0.00,WeatherCatV1.10B1784,2013-01-31 11:36:00,
2013-01-31 03:41:00,49.9,32.0,30.17,NNW,336,0.0,1.0,50,0.00,,,0.00,WeatherCatV1.10B1784,2013-01-31 11:41:00,
2013-01-31 03:46:00,49.8,31.9,30.17,NNW,335,0.0,0.0,50,0.00,,,0.00,WeatherCatV1.10B1784,2013-01-31 11:46:00,
2013-01-31 03:51:00,49.8,31.9,30.17,NNW,335,0.0,0.0,50,0.00,,,0.00,WeatherCatV1.10B1784,2013-01-31 11:51:00,
2013-01-31 03:56:00,49.7,32.3,30.17,NNW,335,0.0,0.0,51,0.00,,,0.00,WeatherCatV1.10B1784,2013-01-31 11:56:00,
2013-01-31 04:01:00,49.7,32.3,30.17,NNW,335,0.0,0.0,51,0.00,,,0.00,WeatherCatV1.10B1784,2013-01-31 12:01:00,
2013-01-31 04:06:00,49.7,32.8,30.17,NNW,335,0.0,0.0,52,0.00,,,0.00,WeatherCatV1.10B1784,2013-01-31 12:06:00,
2013-01-31 04:11:00,49.7,33.7,30.17,NNW,335,0.0,0.0,54,0.00,,,0.00,WeatherCatV1.10B1784,2013-01-31 12:11:00,
2013-01-31 04:16:00,49.8,34.3,30.17,NNW,335,0.0,0.0,55,0.00,,,0.00,WeatherCatV1.10B1784,2013-01-31 12:16:00,
2013-01-31 04:21:00,49.8,34.3,30.17,NNW,335,0.0,0.0,55,0.00,,,0.00,WeatherCatV1.10B1784,2013-01-31 12:21:00,
2013-01-31 04:26:00,49.8,36.1,30.17,NNW,335,0.0,0.0,59,0.00,,,0.00,WeatherCatV1.10B1784,2013-01-31 12:26:00,
2013-01-31 04:31:00,49.8,37.3,30.17,NNW,335,0.0,0.0,62,0.00,,,0.00,WeatherCatV1.10B1784,2013-01-31 12:31:00,
2013-01-31 04:36:00,49.8,37.3,30.17,NNW,335,0.0,0.0,62,0.00,,,0.00,WeatherCatV1.10B1784,2013-01-31 12:36:00,
2013-01-31 04:41:00,49.7,37.2,30.17,NNW,335,0.0,0.0,62,0.00,,,0.00,WeatherCatV1.10B1784,2013-01-31 12:41:00,
2013-01-31 04:46:00,49.7,37.2,30.17,NNW,335,0.0,0.0,62,0.00,,,0.00,WeatherCatV1.10B1784,2013-01-31 12:46:00,
2013-01-31 04:51:00,49.6,38.3,30.17,NNW,335,0.0,0.0,65,0.00,,,0.00,WeatherCatV1.10B1784,2013-01-31 12:51:00,
2013-01-31 04:56:00,49.6,38.3,30.17,NNW,335,0.0,0.0,65,0.00,,,0.00,WeatherCatV1.10B1784,2013-01-31 12:56:00,
2013-01-31 05:01:00,49.5,38.6,30.17,NNW,335,0.0,0.0,66,0.00,,,0.00,WeatherCatV1.10B1784,2013-01-31 13:01:00,
2013-01-31 05:06:00,49.5,38.6,30.17,NNW,335,0.0,0.0,66,0.00,,,0.00,WeatherCatV1.10B1784,2013-01-31 13:06:00,
2013-01-31 05:11:00,49.3,38.0,30.17,NNW,335,0.0,0.0,65,0.00,,,0.00,WeatherCatV1.10B1784,2013-01-31 13:11:00,
2013-01-31 05:16:00,49.2,37.1,30.16,NNW,335,0.0,1.0,63,0.00,,,0.00,WeatherCatV1.10B1784,2013-01-31 13:16:00,
2013-01-31 05:21:00,49.0,34.9,30.16,NNW,335,0.0,0.0,58,0.00,,,0.00,WeatherCatV1.10B1784,2013-01-31 13:21:00,
2013-01-31 05:26:00,48.9,34.3,30.16,NNW,335,0.0,0.0,57,0.00,,,0.00,WeatherCatV1.10B1784,2013-01-31 13:26:00,
2013-01-31 05:31:00,48.8,34.7,30.16,NNW,335,0.0,0.0,58,0.00,,,0.00,WeatherCatV1.10B1784,2013-01-31 13:31:00,
2013-01-31 05:36:00,48.8,37.2,30.16,NNW,335,0.0,0.0,64,0.00,,,0.00,WeatherCatV1.10B1784,2013-01-31 13:36:00,
2013-01-31 05:41:00,48.8,37.6,30.16,NNW,335,0.0,0.0,65,0.00,,,0.00,WeatherCatV1.10B1784,2013-01-31 13:41:00,
2013-01-31 05:46:00,48.7,37.5,30.16,NNW,335,0.0,0.0,65,0.00,,,0.00,WeatherCatV1.10B1784,2013-01-31 13:46:00,
2013-01-31 05:51:00,48.7,37.9,30.16,NNW,335,0.0,0.0,66,0.00,,,0.00,WeatherCatV1.10B1784,2013-01-31 13:51:00,
2013-01-31 05:56:00,48.6,37.8,30.16,NNW,335,0.0,0.0,66,0.00,,,0.00,WeatherCatV1.10B1784,2013-01-31 13:56:00,
2013-01-31 06:00:00,48.6,38.1,30.16,NNW,335,0.0,0.0,67,0.00,,,0.00,WeatherCatV1.10B1784,2013-01-31 14:00:00,
2013-01-31 06:05:00,48.5,38.0,30.16,NNW,335,0.0,0.0,67,0.00,,,0.00,WeatherCatV1.10B1784,2013-01-31 14:05:00,
2013-01-31 06:10:00,48.5,38.0,30.16,NNW,335,0.0,0.0,67,0.00,,,0.00,WeatherCatV1.10B1784,2013-01-31 14:10:00,
2013-01-31 06:15:00,48.5,38.0,30.16,NNW,335,0.0,0.0,67,0.00,,,0.00,WeatherCatV1.10B1784,2013-01-31 14:15:00,
2013-01-31 06:20:00,48.5,38.0,30.16,NNW,335,0.0,0.0,67,0.00,,,0.00,WeatherCatV1.10B1784,2013-01-31 14:20:00,
2013-01-31 06:25:00,48.6,37.8,30.16,NNW,335,0.0,0.0,66,0.00,,,0.00,WeatherCatV1.10B1784,2013-01-31 14:25:00,
2013-01-31 06:30:00,48.5,36.1,30.16,NNW,335,0.0,0.0,62,0.00,,,0.00,WeatherCatV1.10B1784,2013-01-31 14:30:00,
2013-01-31 06:35:00,48.5,34.8,30.16,NNW,335,0.0,0.0,59,0.00,,,0.00,WeatherCatV1.10B1784,2013-01-31 14:35:00,
2013-01-31 06:40:00,48.4,34.3,30.16,NNW,335,0.0,0.0,58,0.00,,,0.00,WeatherCatV1.10B1784,2013-01-31 14:40:00,
2013-01-31 06:45:00,48.4,34.3,30.16,NNW,335,0.0,0.0,58,0.00,,,0.00,WeatherCatV1.10B1784,2013-01-31 14:45:00,
2013-01-31 06:50:00,48.5,34.8,30.16,NNW,335,0.0,0.0,59,0.00,,,0.00,WeatherCatV1.10B1784,2013-01-31 14:50:00,
2013-01-31 06:55:00,48.5,34.4,30.16,NNW,335,0.0,0.0,58,0.00,,,0.00,WeatherCatV1.10B1784,2013-01-31 14:55:00,
2013-01-31 07:00:00,48.6,34.5,30.16,NNW,335,0.0,0.0,58,0.00,,,0.00,WeatherCatV1.10B1784,2013-01-31 15:00:00,
2013-01-31 07:05:00,48.7,34.2,30.16,NNW,335,0.0,0.0,57,0.00,,,0.00,WeatherCatV1.10B1784,2013-01-31 15:05:00,
2013-01-31 07:10:00,48.7,32.8,30.16,NNW,335,0.0,0.0,54,0.00,,,0.00,WeatherCatV1.10B1784,2013-01-31 15:10:00,
2013-01-31 07:15:00,49.0,32.6,30.17,NNW,335,0.0,0.0,53,0.00,,,0.00,WeatherCatV1.10B1784,2013-01-31 15:15:00,
2013-01-31 07:20:00,49.5,35.3,30.17,NNW,335,0.0,0.0,58,0.00,,,0.00,WeatherCatV1.10B1784,2013-01-31 15:20:00,
2013-01-31 07:25:00,49.8,36.1,30.17,NNW,335,0.0,0.0,59,0.00,,,0.00,WeatherCatV1.10B1784,2013-01-31 15:25:00,
2013-01-31 07:30:00,50.0,36.7,30.17,NNW,335,0.0,0.0,60,0.00,,,0.00,WeatherCatV1.10B1784,2013-01-31 15:30:00,
2013-01-31 07:35:00,50.1,36.3,30.17,NNW,336,0.0,0.0,59,0.00,,,0.00,WeatherCatV1.10B1784,2013-01-31 15:35:00,
2013-01-31 07:40:00,50.1,36.3,30.17,NNW,335,0.0,1.0,59,0.00,,,0.00,WeatherCatV1.10B1784,2013-01-31 15:40:00,
2013-01-31 07:45:00,50.1,36.8,30.17,NNW,328,0.0,1.0,60,0.00,,,0.00,WeatherCatV1.10B1784,2013-01-31 15:45:00,
2013-01-31 07:50:00,50.2,35.6,30.17,NNW,337,1.0,1.0,57,0.00,,,0.00,WeatherCatV1.10B1784,2013-01-31 15:50:00,
2013-01-31 07:55:00,50.4,33.4,30.17,NNW,337,0.0,1.0,52,0.00,,,0.00,WeatherCatV1.10B1784,2013-01-31 15:55:00,
2013-01-31 08:00:00,51.0,32.0,30.17,North,351,0.0,1.0,48,0.00,,,0.00,WeatherCatV1.10B1784,2013-01-31 16:00:00,
2013-01-31 08:05:00,51.7,30.5,30.17,NNW,336,0.0,0.0,44,0.00,,,0.00,WeatherCatV1.10B1784,2013-01-31 16:05:00,
2013-01-31 08:10:00,52.1,30.9,30.17,NNW,336,0.0,0.0,44,0.00,,,0.00,WeatherCatV1.10B1784,2013-01-31 16:10:00,
2013-01-31 08:15:00,52.4,31.7,30.17,NNW,337,0.0,1.0,45,0.00,,,0.00,WeatherCatV1.10B1784,2013-01-31 16:15:00,
2013-01-31 08:20:00,52.5,32.3,30.17,NNW,336,0.0,1.0,46,0.00,,,0.00,WeatherCatV1.10B1784,2013-01-31 16:20:00,
2013-01-31 08:25:00,52.6,33.0,30.17,NNW,336,0.0,0.0,47,0.00,,,0.00,WeatherCatV1.10B1784,2013-01-31 16:25:00,
2013-01-31 08:30:00,52.8,32.6,30.17,NNW,336,0.0,0.0,46,0.00,,,0.00,WeatherCatV1.10B1784,2013-01-31 16:30:00,
2013-01-31 08:35:00,52.9,33.2,30.17,NNW,336,0.0,0.0,47,0.00,,,0.00,WeatherCatV1.10B1784,2013-01-31 16:35:00,
2013-01-31 08:40:00,53.1,33.9,30.17,NNW,336,0.0,0.0,48,0.00,,,0.00,WeatherCatV1.10B1784,2013-01-31 16:40:00,
2013-01-31 08:45:00,53.4,34.7,30.18,NNW,336,0.0,0.0,49,0.00,,,0.00,WeatherCatV1.10B1784,2013-01-31 16:45:00,
2013-01-31 08:50:00,53.8,35.6,30.18,NNW,336,0.0,0.0,50,0.00,,,0.00,WeatherCatV1.10B1784,2013-01-31 16:50:00,
2013-01-31 08:55:00,54.1,33.8,30.18,NNW,336,0.0,0.0,46,0.00,,,0.00,WeatherCatV1.10B1784,2013-01-31 16:55:00,
2013-01-31 09:00:00,54.6,37.3,30.18,NNW,336,0.0,0.0,52,0.00,,,0.00,WeatherCatV1.10B1784,2013-01-31 17:00:00,
2013-01-31 09:05:00,54.9,37.1,30.18,NNW,336,0.0,0.0,51,0.00,,,0.00,WeatherCatV1.10B1784,2013-01-31 17:05:00,
2013-01-31 09:10:00,55.2,37.4,30.18,NNW,336,0.0,0.0,51,0.00,,,0.00,WeatherCatV1.10B1784,2013-01-31 17:10:00,
2013-01-31 09:15:00,55.7,35.2,30.19,NNW,337,0.0,0.0,46,0.00,,,0.00,WeatherCatV1.10B1784,2013-01-31 17:15:00,
2013-01-31 09:20:00,56.2,36.2,30.19,NNW,336,0.0,0.0,47,0.00,,,0.00,WeatherCatV1.10B1784,2013-01-31 17:20:00,
2013-01-31 09:25:00,56.6,34.4,30.19,NNW,336,0.0,0.0,43,0.00,,,0.00,WeatherCatV1.10B1784,2013-01-31 17:25:00,
2013-01-31 09:30:00,57.1,38.6,30.19,NNW,336,0.0,0.0,50,0.00,,,0.00,WeatherCatV1.10B1784,2013-01-31 17:30:00,
2013-01-31 09:35:00,57.7,39.2,30.19,NNW,336,0.0,0.0,50,0.00,,,0.00,WeatherCatV1.10B1784,2013-01-31 17:35:00,
2013-01-31 09:40:00,58.3,38.7,30.19,NNW,336,0.0,0.0,48,0.00,,,0.00,WeatherCatV1.10B1784,2013-01-31 17:40:00,
2013-01-31 09:45:00,59.8,40.6,30.19,NNW,329,0.0,0.0,49,0.00,,,0.00,WeatherCatV1.10B1784,2013-01-31 17:45:00,
2013-01-31 09:50:00,61.2,40.8,30.19,SE,129,0.0,0.0,47,0.00,,,0.00,WeatherCatV1.10B1784,2013-01-31 17:50:00,
2013-01-31 09:55:00,62.0,42.1,30.19,SSE,148,0.0,0.0,48,0.00,,,0.00,WeatherCatV1.10B1784,2013-01-31 17:55:00,
2013-01-31 10:00:00,62.5,40.9,30.19,SSE,147,0.0,0.0,45,0.00,,,0.00,WeatherCatV1.10B1784,2013-01-31 18:00:00,
2013-01-31 10:05:00,62.2,42.3,30.19,SSE,147,0.0,0.0,48,0.00,,,0.00,WeatherCatV1.10B1784,2013-01-31 18:05:00,
2013-01-31 10:10:00,61.6,41.7,30.19,SSE,147,1.0,1.0,48,0.00,,,0.00,WeatherCatV1.10B1784,2013-01-31 18:10:00,
2013-01-31 10:15:00,61.5,41.1,30.19,SSE,147,0.0,0.0,47,0.00,,,0.00,WeatherCatV1.10B1784,2013-01-31 18:15:00,
2013-01-31 10:20:00,62.0,42.6,30.19,SSE,147,0.0,1.0,49,0.00,,,0.00,WeatherCatV1.10B1784,2013-01-31 18:20:00,
2013-01-31 10:25:00,62.7,42.7,30.19,ESE,108,0.0,1.0,48,0.00,,,0.00,WeatherCatV1.10B1784,2013-01-31 18:25:00,
2013-01-31 10:30:00,63.2,42.6,30.19,SE,135,0.0,1.0,47,0.00,,,0.00,WeatherCatV1.10B1784,2013-01-31 18:30:00,
2013-01-31 10:35:00,63.7,42.5,30.19,SE,141,1.0,2.0,46,0.00,,,0.00,WeatherCatV1.10B1784,2013-01-31 18:35:00,
2013-01-31 10:40:00,63.5,42.9,30.19,SE,140,0.0,0.0,47,0.00,,,0.00,WeatherCatV1.10B1784,2013-01-31 18:40:00,
2013-01-31 10:45:00,63.1,43.6,30.19,SE,140,0.0,1.0,49,0.00,,,0.00,WeatherCatV1.10B1784,2013-01-31 18:45:00,
2013-01-31 10:50:00,63.3,43.8,30.19,SE,135,1.0,1.0,49,0.00,,,0.00,WeatherCatV1.10B1784,2013-01-31 18:50:00,
2013-01-31 10:55:00,63.6,44.1,30.19,SE,131,0.0,0.0,49,0.00,,,0.00,WeatherCatV1.10B1784,2013-01-31 18:55:00,
2013-01-31 11:00:00,63.7,43.1,30.19,SE,129,0.0,0.0,47,0.00,,,0.00,WeatherCatV1.10B1784,2013-01-31 19:00:00,
2013-01-31 11:05:00,63.3,42.7,30.19,NW,322,0.0,2.0,47,0.00,,,0.00,WeatherCatV1.10B1784,2013-01-31 19:05:00,
2013-01-31 11:10:00,63.1,43.6,30.19,NNW,344,0.0,0.0,49,0.00,,,0.00,WeatherCatV1.10B1784,2013-01-31 19:10:00,
2013-01-31 11:15:00,63.3,44.3,30.19,ENE,76,0.0,1.0,50,0.00,,,0.00,WeatherCatV1.10B1784,2013-01-31 19:15:00,
2013-01-31 11:20:00,63.9,44.4,30.19,SSE,152,0.0,1.0,49,0.00,,,0.00,WeatherCatV1.10B1784,2013-01-31 19:20:00,
2013-01-31 11:25:00,64.7,44.0,30.19,SSE,152,0.0,1.0,47,0.00,,,0.00,WeatherCatV1.10B1784,2013-01-31 19:25:00,
2013-01-31 11:30:00,65.2,43.9,30.19,SE,142,0.0,1.0,46,0.00,,,0.00,WeatherCatV1.10B1784,2013-01-31 19:30:00,
2013-01-31 11:35:00,65.1,43.8,30.19,South,177,0.0,0.0,46,0.00,,,0.00,WeatherCatV1.10B1784,2013-01-31 19:35:00,
2013-01-31 11:40:00,65.0,43.1,30.19,SE,127,0.0,2.0,45,0.00,,,0.00,WeatherCatV1.10B1784,2013-01-31 19:40:00,
2013-01-31 11:45:00,65.2,42.7,30.18,SE,133,0.0,2.0,44,0.00,,,0.00,WeatherCatV1.10B1784,2013-01-31 19:45:00,
2013-01-31 11:50:00,65.3,44.5,30.18,SE,136,1.0,2.0,47,0.00,,,0.00,WeatherCatV1.10B1784,2013-01-31 19:50:00,
2013-01-31 11:55:00,65.5,43.6,30.18,SE,133,0.0,1.0,45,0.00,,,0.00,WeatherCatV1.10B1784,2013-01-31 19:55:00,
2013-01-31 12:00:00,65.7,44.9,30.17,ESE,118,0.0,1.0,47,0.00,,,0.00,WeatherCatV1.10B1784,2013-01-31 20:00:00,
2013-01-31 12:05:00,65.7,44.3,30.17,SSE,154,0.0,0.0,46,0.00,,,0.00,WeatherCatV1.10B1784,2013-01-31 20:05:00,
2013-01-31 12:10:00,65.8,43.3,30.17,SE,131,2.0,2.0,44,0.00,,,0.00,WeatherCatV1.10B1784,2013-01-31 20:10:00,
2013-01-31 12:15:00,65.7,45.5,30.17,SSE,165,3.0,3.0,48,0.00,,,0.00,WeatherCatV1.10B1784,2013-01-31 20:15:00,
2013-01-31 12:20:00,65.3,44.0,30.17,SSE,153,0.0,1.0,46,0.00,,,0.00,WeatherCatV1.10B1784,2013-01-31 20:20:00,
2013-01-31 12:25:00,65.4,44.6,30.17,SSE,152,0.0,0.0,47,0.00,,,0.00,WeatherCatV1.10B1784,2013-01-31 20:25:00,
2013-01-31 12:30:00,65.7,43.8,30.16,SE,131,0.0,1.0,45,0.00,,,0.00,WeatherCatV1.10B1784,2013-01-31 20:30:00,
2013-01-31 12:35:00,66.1,44.7,30.16,East,100,0.0,0.0,46,0.00,,,0.00,WeatherCatV1.10B1784,2013-01-31 20:35:00,
2013-01-31 12:40:00,65.8,42.7,30.16,SSE,155,0.0,2.0,43,0.00,,,0.00,WeatherCatV1.10B1784,2013-01-31 20:40:00,
2013-01-31 12:45:00,65.4,44.6,30.16,SSE,159,2.0,2.0,47,0.00,,,0.00,WeatherCatV1.10B1784,2013-01-31 20:45:00,
2013-01-31 12:50:00,65.4,44.6,30.16,SSE,156,0.0,0.0,47,0.00,,,0.00,WeatherCatV1.10B1784,2013-01-31 20:50:00,
2013-01-31 12:55:00,65.4,44.1,30.16,SE,145,0.0,2.0,46,0.00,,,0.00,WeatherCatV1.10B1784,2013-01-31 20:55:00,
2013-01-31 13:00:00,65.6,45.9,30.15,SSE,147,0.0,0.0,49,0.00,,,0.00,WeatherCatV1.10B1784,2013-01-31 21:00:00,
2013-01-31 13:05:00,65.8,44.4,30.15,SE,145,0.0,2.0,46,0.00,,,0.00,WeatherCatV1.10B1784,2013-01-31 21:05:00,
2013-01-31 13:10:00,65.9,44.5,30.15,SE,138,1.0,2.0,46,0.00,,,0.00,WeatherCatV1.10B1784,2013-01-31 21:10:00,
2013-01-31 13:15:00,66.0,45.2,30.15,SE,146,0.0,1.0,47,0.00,,,0.00,WeatherCatV1.10B1784,2013-01-31 21:15:00,
2013-01-31 13:20:00,65.8,45.0,30.15,SE,139,0.0,0.0,47,0.00,,,0.00,WeatherCatV1.10B1784,2013-01-31 21:20:00,
2013-01-31 13:25:00,65.7,44.3,30.15,SE,142,0.0,1.0,46,0.00,,,0.00,WeatherCatV1.10B1784,2013-01-31 21:25:00,
2013-01-31 13:30:00,65.6,45.4,30.14,SE,137,2.0,2.0,48,0.00,,,0.00,WeatherCatV1.10B1784,2013-01-31 21:30:00,
2013-01-31 13:35:00,65.7,46.5,30.14,SSE,168,1.0,1.0,50,0.00,,,0.00,WeatherCatV1.10B1784,2013-01-31 21:35:00,
2013-01-31 13:40:00,65.5,45.3,30.14,SE,144,0.0,2.0,48,0.00,,,0.00,WeatherCatV1.10B1784,2013-01-31 21:40:00,
2013-01-31 13:45:00,65.3,44.5,30.13,SSE,158,0.0,2.0,47,0.00,,,0.00,WeatherCatV1.10B1784,2013-01-31 21:45:00,
2013-01-31 13:50:00,65.2,46.1,30.13,SSE,154,0.0,1.0,50,0.00,,,0.00,WeatherCatV1.10B1784,2013-01-31 21:50:00,
2013-01-31 13:55:00,65.3,45.1,30.13,SSE,151,0.0,1.0,48,0.00,,,0.00,WeatherCatV1.10B1784,2013-01-31 21:55:00,
2013-01-31 14:00:00,65.2,44.5,30.13,NNE,18,0.0,0.0,47,0.00,,,0.00,WeatherCatV1.10B1784,2013-01-31 22:00:00,
2013-01-31 14:05:00,65.1,44.9,30.13,SE,126,0.0,1.0,48,0.00,,,0.00,WeatherCatV1.10B1784,2013-01-31 22:05:00,
2013-01-31 14:10:00,65.0,45.4,30.13,ESE,123,0.0,1.0,49,0.00,,,0.00,WeatherCatV1.10B1784,2013-01-31 22:10:00,
2013-01-31 14:15:00,64.9,45.8,30.13,SE,142,0.0,0.0,50,0.00,,,0.00,WeatherCatV1.10B1784,2013-01-31 22:15:00,
2013-01-31 14:20:00,64.9,45.8,30.13,SE,142,0.0,0.0,50,0.00,,,0.00,WeatherCatV1.10B1784,2013-01-31 22:20:00,
2013-01-31 14:25:00,64.9,45.3,30.13,SSE,152,0.0,1.0,49,0.00,,,0.00,WeatherCatV1.10B1784,2013-01-31 22:25:00,
2013-01-31 14:30:00,64.9,45.3,30.13,SSE,153,1.0,1.0,49,0.00,,,0.00,WeatherCatV1.10B1784,2013-01-31 22:30:00,
2013-01-31 14:35:00,64.7,45.1,30.13,SSE,155,1.0,2.0,49,0.00,,,0.00,WeatherCatV1.10B1784,2013-01-31 22:35:00,
2013-01-31 14:40:00,64.4,44.8,30.13,SSE,159,0.0,0.0,49,0.00,,,0.00,WeatherCatV1.10B1784,2013-01-31 22:40:00,
2013-01-31 14:45:00,64.2,45.2,30.13,SSE,156,0.0,0.0,50,0.00,,,0.00,WeatherCatV1.10B1784,2013-01-31 22:45:00,
2013-01-31 14:50:00,64.0,45.5,30.13,SE,145,1.0,1.0,51,0.00,,,0.00,WeatherCatV1.10B1784,2013-01-31 22:50:00,
2013-01-31 14:55:00,63.9,45.9,30.13,SSE,151,0.0,1.0,52,0.00,,,0.00,WeatherCatV1.10B1784,2013-01-31 22:55:00,
2013-01-31 15:00:00,63.8,45.8,30.13,SE,145,0.0,1.0,52,0.00,,,0.00,WeatherCatV1.10B1784,2013-01-31 23:00:00,
2013-01-31 15:05:00,63.7,46.2,30.13,SE,133,0.0,0.0,53,0.00,,,0.00,WeatherCatV1.10B1784,2013-01-31 23:05:00,
2013-01-31 15:10:00,63.6,45.6,30.13,ENE,64,0.0,0.0,52,0.00,,,0.00,WeatherCatV1.10B1784,2013-01-31 23:10:00,
2013-01-31 15:15:00,63.5,45.6,30.13,ENE,64,0.0,0.0,52,0.00,,,0.00,WeatherCatV1.10B1784,2013-01-31 23:15:00,
2013-01-31 15:20:00,63.4,46.0,30.13,SE,138,0.0,0.0,53,0.00,,,0.00,WeatherCatV1.10B1784,2013-01-31 23:20:00,
2013-01-31 15:25:00,63.3,45.9,30.13,SSE,152,1.0,1.0,53,0.00,,,0.00,WeatherCatV1.10B1784,2013-01-31 23:25:00,
2013-01-31 15:30:00,63.1,45.7,30.13,SSE,148,0.0,1.0,53,0.00,,,0.00,WeatherCatV1.10B1784,2013-01-31 23:30:00,
2013-01-31 15:35:00,62.9,45.0,30.13,North,8,0.0,1.0,52,0.00,,,0.00,WeatherCatV1.10B1784,2013-01-31 23:35:00,
2013-01-31 15:40:00,62.7,45.3,30.13,ENE,69,0.0,1.0,53,0.00,,,0.00,WeatherCatV1.10B1784,2013-01-31 23:40:00,
2013-01-31 15:45:00,62.5,45.1,30.12,SSE,153,0.0,1.0,53,0.00,,,0.00,WeatherCatV1.10B1784,2013-01-31 23:45:00,
2013-01-31 15:50:00,62.3,45.4,30.12,SE,133,0.0,0.0,54,0.00,,,0.00,WeatherCatV1.10B1784,2013-01-31 23:50:00,
2013-01-31 15:55:00,62.2,45.3,30.12,SSE,150,0.0,1.0,54,0.00,,,0.00,WeatherCatV1.10B1784,2013-01-31 23:55:00,
2013-01-31 16:00:00,61.9,46.0,30.12,SSE,156,0.0,0.0,56,0.00,,,0.00,WeatherCatV1.10B1784,2013-02-01 00:00:00,
2013-01-31 16:05:00,61.6,46.2,30.12,SSE,156,0.0,0.0,57,0.00,,,0.00,WeatherCatV1.10B1784,2013-02-01 00:05:00,
2013-01-31 16:10:00,61.3,45.9,30.12,SSE,156,0.0,0.0,57,0.00,,,0.00,WeatherCatV1.10B1784,2013-02-01 00:10:00,
2013-01-31 16:15:00,61.1,46.2,30.12,SSE,156,0.0,0.0,58,0.00,,,0.00,WeatherCatV1.10B1784,2013-02-01 00:15:00,
2013-01-31 16:20:00,60.7,45.8,30.12,SSE,156,0.0,0.0,58,0.00,,,0.00,WeatherCatV1.10B1784,2013-02-01 00:20:00,
2013-01-31 16:25:00,60.4,46.4,30.12,SSE,156,0.0,0.0,60,0.00,,,0.00,WeatherCatV1.10B1784,2013-02-01 00:25:00,
2013-01-31 16:30:00,59.9,43.7,30.12,NW,323,0.0,0.0,55,0.00,,,0.00,WeatherCatV1.10B1784,2013-02-01 00:30:00,
2013-01-31 16:35:00,59.5,44.3,30.12,NNW,348,0.0,1.0,57,0.00,,,0.00,WeatherCatV1.10B1784,2013-02-01 00:35:00,
2013-01-31 16:40:00,59.0,42.4,30.12,North,351,0.0,4.0,54,0.00,,,0.00,WeatherCatV1.10B1784,2013-02-01 00:40:00,
2013-01-31 16:45:00,58.3,42.2,30.12,NNW,336,1.0,3.0,55,0.00,,,0.00,WeatherCatV1.10B1784,2013-02-01 00:45:00,
2013-01-31 16:50:00,57.6,41.6,30.12,NNW,348,0.0,2.0,55,0.00,,,0.00,WeatherCatV1.10B1784,2013-02-01 00:50:00,
2013-01-31 16:55:00,57.3,42.2,30.12,NNW,348,0.0,0.0,57,0.00,,,0.00,WeatherCatV1.10B1784,2013-02-01 00:55:00,
2013-01-31 17:00:00,57.1,42.0,30.12,NNW,348,0.0,0.0,57,0.00,,,0.00,WeatherCatV1.10B1784,2013-02-01 01:00:00,
2013-01-31 17:05:00,56.9,42.3,30.12,NNW,348,0.0,0.0,58,0.00,,,0.00,WeatherCatV1.10B1784,2013-02-01 01:05:00,
2013-01-31 17:10:00,56.7,42.1,30.12,NNW,348,0.0,0.0,58,0.00,,,0.00,WeatherCatV1.10B1784,2013-02-01 01:10:00,
2013-01-31 17:15:00,56.3,41.7,30.12,NNW,348,1.0,1.0,58,0.00,,,0.00,WeatherCatV1.10B1784,2013-02-01 01:15:00,
2013-01-31 17:20:00,55.7,41.6,30.12,NNW,340,2.0,4.0,59,0.00,,,0.00,WeatherCatV1.10B1784,2013-02-01 01:20:00,
2013-01-31 17:25:00,55.3,41.7,30.12,NNE,27,0.0,0.0,60,0.00,,,0.00,WeatherCatV1.10B1784,2013-02-01 01:25:00,
2013-01-31 17:30:00,55.1,41.5,30.12,NNE,27,0.0,1.0,60,0.00,,,0.00,WeatherCatV1.10B1784,2013-02-01 01:30:00,
2013-01-31 17:35:00,54.9,41.3,30.12,NNE,26,0.0,0.0,60,0.00,,,0.00,WeatherCatV1.10B1784,2013-02-01 01:35:00,
2013-01-31 17:40:00,54.8,41.6,30.12,NNE,26,0.0,0.0,61,0.00,,,0.00,WeatherCatV1.10B1784,2013-02-01 01:40:00,
2013-01-31 17:45:00,54.6,41.4,30.12,NNE,26,0.0,0.0,61,0.00,,,0.00,WeatherCatV1.10B1784,2013-02-01 01:45:00,
2013-01-31 17:50:00,54.4,41.7,30.12,NNE,26,0.0,0.0,62,0.00,,,0.00,WeatherCatV1.10B1784,2013-02-01 01:50:00,
2013-01-31 17:55:00,54.1,42.2,30.12,NNW,333,2.0,3.0,64,0.00,,,0.00,WeatherCatV1.10B1784,2013-02-01 01:55:00,
2013-01-31 18:00:00,53.6,42.1,30.12,NNW,338,0.0,0.0,65,0.00,,,0.00,WeatherCatV1.10B1784,2013-02-01 02:00:00,
2013-01-31 18:05:00,53.5,42.0,30.12,NNW,340,0.0,1.0,65,0.00,,,0.00,WeatherCatV1.10B1784,2013-02-01 02:05:00,
2013-01-31 18:10:00,53.4,41.9,30.12,NNW,340,0.0,0.0,65,0.00,,,0.00,WeatherCatV1.10B1784,2013-02-01 02:10:00,
2013-01-31 18:15:00,53.4,42.3,30.12,NNW,340,0.0,0.0,66,0.00,,,0.00,WeatherCatV1.10B1784,2013-02-01 02:15:00,
2013-01-31 18:20:00,53.4,42.7,30.12,NNW,340,0.0,0.0,67,0.00,,,0.00,WeatherCatV1.10B1784,2013-02-01 02:20:00,
2013-01-31 18:25:00,53.4,43.1,30.12,NNW,340,0.0,0.0,68,0.00,,,0.00,WeatherCatV1.10B1784,2013-02-01 02:25:00,
2013-01-31 18:30:00,53.5,43.6,30.12,NNW,340,0.0,0.0,69,0.00,,,0.00,WeatherCatV1.10B1784,2013-02-01 02:30:00,
2013-01-31 18:35:00,53.6,44.1,30.12,NNW,340,0.0,0.0,70,0.00,,,0.00,WeatherCatV1.10B1784,2013-02-01 02:35:00,
2013-01-31 18:40:00,53.7,43.8,30.12,NNW,340,0.0,0.0,69,0.00,,,0.00,WeatherCatV1.10B1784,2013-02-01 02:40:00,
2013-01-31 18:45:00,53.8,43.9,30.12,NNW,340,0.0,0.0,69,0.00,,,0.00,WeatherCatV1.10B1784,2013-02-01 02:45:00,
2013-01-31 18:50:00,53.9,44.0,30.12,NNW,339,1.0,1.0,69,0.00,,,0.00,WeatherCatV1.10B1784,2013-02-01 02:50:00,
2013-01-31 18:55:00,53.9,44.0,30.12,NNW,339,0.0,0.0,69,0.00,,,0.00,WeatherCatV1.10B1784,2013-02-01 02:55:00,
2013-01-31 19:00:00,53.9,44.0,30.12,NNW,335,0.0,0.0,69,0.00,,,0.00,WeatherCatV1.10B1784,2013-02-01 03:00:00,
2013-01-31 19:05:00,53.9,44.0,30.12,NNW,335,0.0,0.0,69,0.00,,,0.00,WeatherCatV1.10B1784,2013-02-01 03:05:00,
2013-01-31 19:10:00,53.9,44.0,30.12,NNW,335,0.0,0.0,69,0.00,,,0.00,WeatherCatV1.10B1784,2013-02-01 03:10:00,
2013-01-31 19:15:00,53.9,43.2,30.12,NNW,335,0.0,0.0,67,0.00,,,0.00,WeatherCatV1.10B1784,2013-02-01 03:15:00,
2013-01-31 19:20:00,53.9,42.8,30.12,NNW,335,0.0,0.0,66,0.00,,,0.00,WeatherCatV1.10B1784,2013-02-01 03:20:00,
2013-01-31 19:25:00,54.0,42.5,30.12,NNW,335,0.0,0.0,65,0.00,,,0.00,WeatherCatV1.10B1784,2013-02-01 03:25:00,
2013-01-31 19:30:00,54.0,41.7,30.12,NNW,335,0.0,0.0,63,0.00,,,0.00,WeatherCatV1.10B1784,2013-02-01 03:30:00,
2013-01-31 19:35:00,54.1,41.4,30.12,NNW,335,0.0,1.0,62,0.00,,,0.00,WeatherCatV1.10B1784,2013-02-01 03:35:00,
2013-01-31 19:40:00,54.2,41.0,30.12,NNW,338,0.0,0.0,61,0.00,,,0.00,WeatherCatV1.10B1784,2013-02-01 03:40:00,
2013-01-31 19:45:00,54.2,40.2,30.12,NNW,338,0.0,0.0,59,0.00,,,0.00,WeatherCatV1.10B1784,2013-02-01 03:45:00,
2013-01-31 19:50:00,54.2,40.2,30.12,NNW,334,1.0,2.0,59,0.00,,,0.00,WeatherCatV1.10B1784,2013-02-01 03:50:00,
2013-01-31 19:55:00,54.1,40.1,30.12,NNW,333,1.0,2.0,59,0.00,,,0.00,WeatherCatV1.10B1784,2013-02-01 03:55:00,
2013-01-31 20:00:00,54.1,41.0,30.12,NNW,333,0.0,0.0,61,0.00,,,0.00,WeatherCatV1.10B1784,2013-02-01 04:00:00,
2013-01-31 20:05:00,54.1,41.4,30.12,NNW,333,0.0,0.0,62,0.00,,,0.00,WeatherCatV1.10B1784,2013-02-01 04:05:00,
2013-01-31 20:10:00,54.1,41.4,30.12,NNW,333,0.0,0.0,62,0.00,,,0.00,WeatherCatV1.10B1784,2013-02-01 04:10:00,
2013-01-31 20:15:00,54.0,40.4,30.12,NNW,333,0.0,0.0,60,0.00,,,0.00,WeatherCatV1.10B1784,2013-02-01 04:15:00,
2013-01-31 20:20:00,54.0,39.1,30.12,NNW,333,0.0,0.0,57,0.00,,,0.00,WeatherCatV1.10B1784,2013-02-01 04:20:00,
2013-01-31 20:25:00,54.0,39.1,30.12,NNW,333,0.0,0.0,57,0.00,,,0.00,WeatherCatV1.10B1784,2013-02-01 04:25:00,
2013-01-31 20:30:00,54.0,40.9,30.12,NNW,333,0.0,0.0,61,0.00,,,0.00,WeatherCatV1.10B1784,2013-02-01 04:30:00,
2013-01-31 20:35:00,54.2,42.3,30.12,NNW,333,0.0,0.0,64,0.00,,,0.00,WeatherCatV1.10B1784,2013-02-01 04:35:00,
2013-01-31 20:40:00,54.4,42.5,30.12,NNW,333,0.0,0.0,64,0.00,,,0.00,WeatherCatV1.10B1784,2013-02-01 04:40:00,
2013-01-31 20:45:00,54.5,41.7,30.12,NNW,333,0.0,0.0,62,0.00,,,0.00,WeatherCatV1.10B1784,2013-02-01 04:45:00,
2013-01-31 20:50:00,54.5,41.3,30.12,NNW,333,0.0,0.0,61,0.00,,,0.00,WeatherCatV1.10B1784,2013-02-01 04:50:00,
2013-01-31 20:55:00,54.4,40.4,30.12,NNW,333,0.0,0.0,59,0.00,,,0.00,WeatherCatV1.10B1784,2013-02-01 04:55:00,
2013-01-31 21:00:00,54.3,40.3,30.12,NNW,333,0.0,0.0,59,0.00,,,0.00,WeatherCatV1.10B1784,2013-02-01 05:00:00,
2013-01-31 21:05:00,54.2,40.2,30.12,NNW,333,0.0,0.0,59,0.00,,,0.00,WeatherCatV1.10B1784,2013-02-01 05:05:00,
2013-01-31 21:10:00,54.0,40.4,30.12,NNW,333,0.0,0.0,60,0.00,,,0.00,WeatherCatV1.10B1784,2013-02-01 05:10:00,
2013-01-31 21:15:00,53.9,40.8,30.12,NNW,333,0.0,0.0,61,0.00,,,0.00,WeatherCatV1.10B1784,2013-02-01 05:15:00,
2013-01-31 21:20:00,53.7,41.0,30.12,NNW,333,0.0,0.0,62,0.00,,,0.00,WeatherCatV1.10B1784,2013-02-01 05:20:00,
2013-01-31 21:25:00,53.6,41.3,30.12,NNW,333,0.0,0.0,63,0.00,,,0.00,WeatherCatV1.10B1784,2013-02-01 05:25:00,
2013-01-31 21:30:00,53.5,41.6,30.12,NNW,333,0.0,0.0,64,0.00,,,0.00,WeatherCatV1.10B1784,2013-02-01 05:30:00,
2013-01-31 21:35:00,53.5,41.2,30.12,NNW,333,0.0,0.0,63,0.00,,,0.00,WeatherCatV1.10B1784,2013-02-01 05:35:00,
2013-01-31 21:40:00,53.5,41.2,30.12,NNW,333,0.0,0.0,63,0.00,,,0.00,WeatherCatV1.10B1784,2013-02-01 05:40:00,
2013-01-31 21:45:00,53.5,41.2,30.12,NNW,333,0.0,0.0,63,0.00,,,0.00,WeatherCatV1.10B1784,2013-02-01 05:45:00,
2013-01-31 21:50:00,53.5,41.6,30.12,NNW,333,0.0,0.0,64,0.00,,,0.00,WeatherCatV1.10B1784,2013-02-01 05:50:00,
2013-01-31 21:55:00,53.6,42.1,30.12,NNW,333,0.0,0.0,65,0.00,,,0.00,WeatherCatV1.10B1784,2013-02-01 05:55:00,
2013-01-31 22:00:00,53.6,42.1,30.11,NNW,333,0.0,0.0,65,0.00,,,0.00,WeatherCatV1.10B1784,2013-02-01 06:00:00,
2013-01-31 22:05:00,53.6,42.5,30.11,NNW,333,0.0,0.0,66,0.00,,,0.00,WeatherCatV1.10B1784,2013-02-01 06:05:00,
2013-01-31 22:10:00,53.6,42.1,30.11,NNW,333,0.0,0.0,65,0.00,,,0.00,WeatherCatV1.10B1784,2013-02-01 06:10:00,
2013-01-31 22:15:00,53.5,42.0,30.11,NNW,333,0.0,0.0,65,0.00,,,0.00,WeatherCatV1.10B1784,2013-02-01 06:15:00,
2013-01-31 22:20:00,53.6,40.9,30.11,NNW,333,0.0,0.0,62,0.00,,,0.00,WeatherCatV1.10B1784,2013-02-01 06:20:00,
2013-01-31 22:25:00,53.7,40.6,30.11,NNW,333,0.0,0.0,61,0.00,,,0.00,WeatherCatV1.10B1784,2013-02-01 06:25:00,
2013-01-31 22:30:00,53.8,41.1,30.11,NNW,333,0.0,0.0,62,0.00,,,0.00,WeatherCatV1.10B1784,2013-02-01 06:30:00,
2013-01-31 22:35:00,53.8,39.8,30.11,NNW,330,0.0,0.0,59,0.00,,,0.00,WeatherCatV1.10B1784,2013-02-01 06:35:00,
2013-01-31 22:40:00,53.7,38.4,30.11,NNW,333,0.0,0.0,56,0.00,,,0.00,WeatherCatV1.10B1784,2013-02-01 06:40:00,
2013-01-31 22:45:00,53.8,38.5,30.11,NNW,333,0.0,0.0,56,0.00,,,0.00,WeatherCatV1.10B1784,2013-02-01 06:45:00,
2013-01-31 22:50:00,53.8,38.5,30.11,NNW,333,0.0,0.0,56,0.00,,,0.00,WeatherCatV1.10B1784,2013-02-01 06:50:00,
2013-01-31 22:55:00,53.9,38.1,30.11,NNW,333,0.0,0.0,55,0.00,,,0.00,WeatherCatV1.10B1784,2013-02-01 06:55:00,
2013-01-31 23:00:00,54.1,39.2,30.11,NNW,333,0.0,0.0,57,0.00,,,0.00,WeatherCatV1.10B1784,2013-02-01 07:00:00,
2013-01-31 23:05:00,54.2,39.3,30.11,NNW,333,0.0,0.0,57,0.00,,,0.00,WeatherCatV1.10B1784,2013-02-01 07:05:00,
2013-01-31 23:10:00,54.3,38.0,30.11,NNW,333,0.0,0.0,54,0.00,,,0.00,WeatherCatV1.10B1784,2013-02-01 07:10:00,
2013-01-31 23:15:00,54.3,38.0,30.11,NNW,333,0.0,0.0,54,0.00,,,0.00,WeatherCatV1.10B1784,2013-02-01 07:15:00,
2013-01-31 23:20:00,54.3,38.0,30.11,NNW,333,0.0,0.0,54,0.00,,,0.00,WeatherCatV1.10B1784,2013-02-01 07:20:00,
2013-01-31 23:25:00,54.4,38.1,30.11,NNW,333,0.0,0.0,54,0.00,,,0.00,WeatherCatV1.10B1784,2013-02-01 07:25:00,
2013-01-31 23:30:00,54.5,40.0,30.11,NNW,333,0.0,0.0,58,0.00,,,0.00,WeatherCatV1.10B1784,2013-02-01 07:30:00,
2013-01-31 23:35:00,54.6,40.1,30.11,NNW,333,0.0,0.0,58,0.00,,,0.00,WeatherCatV1.10B1784,2013-02-01 07:35:00,
2013-01-31 23:40:00,54.6,40.6,30.11,NNW,333,0.0,0.0,59,0.00,,,0.00,WeatherCatV1.10B1784,2013-02-01 07:40:00,
2013-01-31 23:45:00,54.4,39.9,30.11,NNW,333,0.0,0.0,58,0.00,,,0.00,WeatherCatV1.10B1784,2013-02-01 07:45:00,
2013-01-31 23:50:00,54.4,39.9,30.11,NNW,333,0.0,0.0,58,0.00,,,0.00,WeatherCatV1.10B1784,2013-02-01 07:50:00,
2013-01-31 23:55:00,54.3,39.4,30.11,NNW,333,0.0,0.0,57,0.00,,,0.00,WeatherCatV1.10B1784,2013-02-01 07:55:00,